sensor_id;sensor_type;location;lat;lon;timestamp;pressure;altitude;pressure_sealevel;temperature;humidity
32320;BME280;19080;51.750;5.888;2023-04-06T00:00:49;101626.16;;;1.74;100.00
32320;BME280;19080;51.750;5.888;2023-04-06T00:03:16;101535.25;;;1.28;100.00
32320;BME280;19080;51.750;5.888;2023-04-06T00:05:43;101544.75;;;1.41;100.00
32320;BME280;19080;51.750;5.888;2023-04-06T00:08:10;101612.34;;;1.76;100.00
32320;BME280;19080;51.750;5.888;2023-04-06T00:10:36;101608.31;;;1.81;100.00
32320;BME280;19080;51.750;5.888;2023-04-06T00:13:03;101625.81;;;1.82;100.00
32320;BME280;19080;51.750;5.888;2023-04-06T00:15:30;101545.06;;;1.46;100.00
32320;BME280;19080;51.750;5.888;2023-04-06T00:21:52;101591.41;;;1.76;100.00
32320;BME280;19080;51.750;5.888;2023-04-06T00:24:19;101592.97;;;1.73;100.00
32320;BME280;19080;51.750;5.888;2023-04-06T00:26:46;101593.41;;;1.80;100.00
32320;BME280;19080;51.750;5.888;2023-04-06T00:29:13;101587.19;;;1.78;100.00
32320;BME280;19080;51.750;5.888;2023-04-06T00:31:39;101506.84;;;1.35;100.00
32320;BME280;19080;51.750;5.888;2023-04-06T00:34:06;101598.94;;;1.85;100.00
32320;BME280;19080;51.750;5.888;2023-04-06T00:36:33;101588.97;;;1.79;100.00
32320;BME280;19080;51.750;5.888;2023-04-06T00:38:59;101595.03;;;1.78;100.00
32320;BME280;19080;51.750;5.888;2023-04-06T00:41:26;101584.47;;;1.77;100.00
32320;BME280;19080;51.750;5.888;2023-04-06T00:43:54;101614.09;;;1.90;100.00
32320;BME280;19080;51.750;5.888;2023-04-06T00:46:21;101597.44;;;1.75;100.00
32320;BME280;19080;51.750;5.888;2023-04-06T00:48:47;101516.13;;;1.29;100.00
32320;BME280;19080;51.750;5.888;2023-04-06T00:51:14;101580.03;;;1.61;100.00
32320;BME280;19080;51.750;5.888;2023-04-06T00:53:41;101515.94;;;1.26;100.00
32320;BME280;19080;51.750;5.888;2023-04-06T00:56:09;101591.06;;;1.70;100.00
32320;BME280;19080;51.750;5.888;2023-04-06T00:58:47;101500.38;;;1.15;100.00
32320;BME280;19080;51.750;5.888;2023-04-06T01:01:14;101571.41;;;1.49;100.00
32320;BME280;19080;51.750;5.888;2023-04-06T01:03:41;101598.91;;;1.70;100.00
32320;BME280;19080;51.750;5.888;2023-04-06T01:06:11;101566.25;;;1.50;100.00
32320;BME280;19080;51.750;5.888;2023-04-06T01:08:39;101578.72;;;1.54;100.00
32320;BME280;19080;51.750;5.888;2023-04-06T01:11:17;101480.50;;;1.04;100.00
32320;BME280;19080;51.750;5.888;2023-04-06T01:13:45;101537.03;;;1.29;100.00
32320;BME280;19080;51.750;5.888;2023-04-06T01:16:20;101585.88;;;1.57;100.00
32320;BME280;19080;51.750;5.888;2023-04-06T01:19:01;101592.91;;;1.58;100.00
32320;BME280;19080;51.750;5.888;2023-04-06T01:21:31;101460.41;;;0.89;100.00
32320;BME280;19080;51.750;5.888;2023-04-06T01:24:21;101542.84;;;1.39;100.00
32320;BME280;19080;51.750;5.888;2023-04-06T01:26:59;101406.50;;;0.63;100.00
32320;BME280;19080;51.750;5.888;2023-04-06T01:29:34;101436.41;;;0.82;100.00
32320;BME280;19080;51.750;5.888;2023-04-06T01:32:04;101551.91;;;1.44;100.00
32320;BME280;19080;51.750;5.888;2023-04-06T01:34:36;101463.13;;;0.91;100.00
32320;BME280;19080;51.750;5.888;2023-04-06T01:37:04;101542.84;;;1.39;100.00
32320;BME280;19080;51.750;5.888;2023-04-06T01:39:31;101547.28;;;1.40;100.00
32320;BME280;19080;51.750;5.888;2023-04-06T01:42:01;101510.72;;;1.26;100.00
32320;BME280;19080;51.750;5.888;2023-04-06T01:44:28;101511.28;;;1.36;100.00
32320;BME280;19080;51.750;5.888;2023-04-06T01:47:06;101554.66;;;1.60;100.00
32320;BME280;19080;51.750;5.888;2023-04-06T01:49:32;101548.00;;;1.65;100.00
32320;BME280;19080;51.750;5.888;2023-04-06T01:52:00;101544.00;;;1.57;100.00
32320;BME280;19080;51.750;5.888;2023-04-06T01:54:27;101541.59;;;1.60;100.00
32320;BME280;19080;51.750;5.888;2023-04-06T01:57:12;101536.59;;;1.50;100.00
32320;BME280;19080;51.750;5.888;2023-04-06T01:59:46;101506.63;;;1.45;100.00
32320;BME280;19080;51.750;5.888;2023-04-06T02:02:38;101552.63;;;1.69;100.00
32320;BME280;19080;51.750;5.888;2023-04-06T02:05:12;101504.28;;;1.49;100.00
32320;BME280;19080;51.750;5.888;2023-04-06T02:07:39;101498.97;;;1.48;100.00
32320;BME280;19080;51.750;5.888;2023-04-06T02:10:14;101527.44;;;1.71;100.00
32320;BME280;19080;51.750;5.888;2023-04-06T02:12:43;101511.91;;;1.74;100.00
32320;BME280;19080;51.750;5.888;2023-04-06T02:15:14;101515.16;;;1.85;100.00
32320;BME280;19080;51.750;5.888;2023-04-06T02:17:42;101531.91;;;2.02;100.00
32320;BME280;19080;51.750;5.888;2023-04-06T02:20:09;101505.53;;;1.99;100.00
32320;BME280;19080;51.750;5.888;2023-04-06T02:22:36;101494.97;;;1.97;100.00
32320;BME280;19080;51.750;5.888;2023-04-06T02:25:02;101421.13;;;1.58;100.00
32320;BME280;19080;51.750;5.888;2023-04-06T02:27:29;101519.38;;;2.25;100.00
32320;BME280;19080;51.750;5.888;2023-04-06T02:29:57;101504.56;;;2.26;100.00
32320;BME280;19080;51.750;5.888;2023-04-06T02:32:24;101419.50;;;1.90;100.00
32320;BME280;19080;51.750;5.888;2023-04-06T02:34:51;101496.78;;;2.42;100.00
32320;BME280;19080;51.750;5.888;2023-04-06T02:37:20;101500.75;;;2.50;100.00
32320;BME280;19080;51.750;5.888;2023-04-06T02:39:47;101515.00;;;2.70;100.00
32320;BME280;19080;51.750;5.888;2023-04-06T02:42:13;101449.44;;;2.39;100.00
32320;BME280;19080;51.750;5.888;2023-04-06T02:44:43;101409.19;;;2.22;100.00
32320;BME280;19080;51.750;5.888;2023-04-06T02:47:10;101510.38;;;2.81;100.00
32320;BME280;19080;51.750;5.888;2023-04-06T02:49:39;101432.28;;;2.44;100.00
32320;BME280;19080;51.750;5.888;2023-04-06T02:52:07;101474.13;;;2.74;100.00
32320;BME280;19080;51.750;5.888;2023-04-06T02:54:35;101496.16;;;2.92;100.00
32320;BME280;19080;51.750;5.888;2023-04-06T02:57:02;101478.44;;;2.88;100.00
32320;BME280;19080;51.750;5.888;2023-04-06T02:59:36;101487.81;;;2.99;100.00
32320;BME280;19080;51.750;5.888;2023-04-06T03:02:23;101417.94;;;2.69;100.00
32320;BME280;19080;51.750;5.888;2023-04-06T03:05:02;101396.88;;;2.67;100.00
32320;BME280;19080;51.750;5.888;2023-04-06T03:07:34;101460.38;;;3.09;100.00
32320;BME280;19080;51.750;5.888;2023-04-06T03:10:01;101448.25;;;3.11;100.00
32320;BME280;19080;51.750;5.888;2023-04-06T03:12:30;101375.53;;;2.76;100.00
32320;BME280;19080;51.750;5.888;2023-04-06T03:15:15;101387.34;;;2.84;100.00
32320;BME280;19080;51.750;5.888;2023-04-06T03:17:47;101459.09;;;3.33;100.00
32320;BME280;19080;51.750;5.888;2023-04-06T03:20:29;101446.69;;;3.31;100.00
32320;BME280;19080;51.750;5.888;2023-04-06T03:22:56;101333.91;;;2.66;100.00
32320;BME280;19080;51.750;5.888;2023-04-06T03:25:26;101474.31;;;3.56;100.00
32320;BME280;19080;51.750;5.888;2023-04-06T03:27:58;101472.59;;;3.57;100.00
32320;BME280;19080;51.750;5.888;2023-04-06T03:30:25;101384.25;;;3.07;100.00
32320;BME280;19080;51.750;5.888;2023-04-06T03:32:53;101438.41;;;3.39;100.00
32320;BME280;19080;51.750;5.888;2023-04-06T03:35:21;101378.34;;;3.11;100.00
32320;BME280;19080;51.750;5.888;2023-04-06T03:37:49;101470.28;;;3.63;100.00
32320;BME280;19080;51.750;5.888;2023-04-06T03:40:16;101467.31;;;3.73;100.00
32320;BME280;19080;51.750;5.888;2023-04-06T03:42:43;101463.97;;;3.76;100.00
32320;BME280;19080;51.750;5.888;2023-04-06T03:45:13;101442.06;;;3.59;100.00
32320;BME280;19080;51.750;5.888;2023-04-06T03:47:45;101476.50;;;3.81;100.00
32320;BME280;19080;51.750;5.888;2023-04-06T03:50:13;101467.97;;;3.85;100.00
32320;BME280;19080;51.750;5.888;2023-04-06T03:52:39;101424.25;;;3.70;100.00
32320;BME280;19080;51.750;5.888;2023-04-06T03:55:07;101460.25;;;3.88;100.00
32320;BME280;19080;51.750;5.888;2023-04-06T03:57:35;101345.13;;;3.28;100.00
32320;BME280;19080;51.750;5.888;2023-04-06T04:00:02;101432.69;;;3.80;100.00
32320;BME280;19080;51.750;5.888;2023-04-06T04:02:38;101439.59;;;3.78;100.00
32320;BME280;19080;51.750;5.888;2023-04-06T04:05:05;101357.16;;;3.41;100.00
32320;BME280;19080;51.750;5.888;2023-04-06T04:07:32;101371.88;;;3.55;100.00
32320;BME280;19080;51.750;5.888;2023-04-06T04:09:59;101414.22;;;3.79;100.00
32320;BME280;19080;51.750;5.888;2023-04-06T04:12:26;101362.66;;;3.45;100.00
32320;BME280;19080;51.750;5.888;2023-04-06T04:14:53;101372.75;;;3.55;100.00
32320;BME280;19080;51.750;5.888;2023-04-06T04:17:21;101469.38;;;4.13;100.00
32320;BME280;19080;51.750;5.888;2023-04-06T04:19:48;101447.81;;;4.02;100.00
32320;BME280;19080;51.750;5.888;2023-04-06T04:22:15;101438.88;;;3.99;100.00
32320;BME280;19080;51.750;5.888;2023-04-06T04:24:43;101439.94;;;4.02;100.00
32320;BME280;19080;51.750;5.888;2023-04-06T04:27:09;101374.47;;;3.71;100.00
32320;BME280;19080;51.750;5.888;2023-04-06T04:29:37;101439.34;;;4.08;100.00
32320;BME280;19080;51.750;5.888;2023-04-06T04:32:07;101432.44;;;4.10;100.00
32320;BME280;19080;51.750;5.888;2023-04-06T04:34:34;101433.94;;;4.05;100.00
32320;BME280;19080;51.750;5.888;2023-04-06T04:37:04;101376.25;;;3.72;100.00
32320;BME280;19080;51.750;5.888;2023-04-06T04:39:46;101470.84;;;4.24;100.00
32320;BME280;19080;51.750;5.888;2023-04-06T04:42:13;101450.91;;;4.11;100.00
32320;BME280;19080;51.750;5.888;2023-04-06T04:44:46;101476.75;;;4.20;100.00
32320;BME280;19080;51.750;5.888;2023-04-06T04:47:17;101448.50;;;3.98;100.00
32320;BME280;19080;51.750;5.888;2023-04-06T04:49:45;101457.50;;;4.03;100.00
32320;BME280;19080;51.750;5.888;2023-04-06T04:52:17;101365.31;;;3.47;100.00
32320;BME280;19080;51.750;5.888;2023-04-06T04:54:56;101462.44;;;3.97;100.00
32320;BME280;19080;51.750;5.888;2023-04-06T04:57:26;101460.56;;;3.95;100.00
32320;BME280;19080;51.750;5.888;2023-04-06T04:59:53;101412.22;;;3.57;100.00
32320;BME280;19080;51.750;5.888;2023-04-06T05:02:22;101363.72;;;3.33;100.00
32320;BME280;19080;51.750;5.888;2023-04-06T05:05:15;101448.13;;;3.74;100.00
32320;BME280;19080;51.750;5.888;2023-04-06T05:07:42;101452.47;;;3.74;100.00
32320;BME280;19080;51.750;5.888;2023-04-06T05:10:17;101458.78;;;3.77;100.00
32320;BME280;19080;51.750;5.888;2023-04-06T05:12:57;101368.00;;;3.31;100.00
32320;BME280;19080;51.750;5.888;2023-04-06T05:15:26;101469.94;;;3.89;100.00
32320;BME280;19080;51.750;5.888;2023-04-06T05:18:00;101440.41;;;3.77;100.00
32320;BME280;19080;51.750;5.888;2023-04-06T05:20:31;101420.06;;;3.73;100.00
32320;BME280;19080;51.750;5.888;2023-04-06T05:22:59;101363.47;;;3.44;100.00
32320;BME280;19080;51.750;5.888;2023-04-06T05:25:26;101465.78;;;4.11;100.00
32320;BME280;19080;51.750;5.888;2023-04-06T05:27:56;101361.53;;;3.58;100.00
32320;BME280;19080;51.750;5.888;2023-04-06T05:30:30;101324.84;;;3.42;100.00
32320;BME280;19080;51.750;5.888;2023-04-06T05:32:58;101351.66;;;3.70;100.00
32320;BME280;19080;51.750;5.888;2023-04-06T05:35:31;101435.03;;;4.26;100.00
32320;BME280;19080;51.750;5.888;2023-04-06T05:38:08;101430.66;;;4.27;100.00
32320;BME280;19080;51.750;5.888;2023-04-06T05:40:35;101458.84;;;4.47;100.00
32320;BME280;19080;51.750;5.888;2023-04-06T05:43:02;101454.56;;;4.49;100.00
32320;BME280;19080;51.750;5.888;2023-04-06T05:45:29;101440.88;;;4.38;100.00
32320;BME280;19080;51.750;5.888;2023-04-06T05:47:57;101419.63;;;4.34;100.00
32320;BME280;19080;51.750;5.888;2023-04-06T05:50:28;101391.03;;;4.22;100.00
32320;BME280;19080;51.750;5.888;2023-04-06T05:52:56;101351.69;;;4.06;100.00
32320;BME280;19080;51.750;5.888;2023-04-06T05:55:28;101449.31;;;4.67;100.00
32320;BME280;19080;51.750;5.888;2023-04-06T05:58:07;101437.13;;;4.69;100.00
32320;BME280;19080;51.750;5.888;2023-04-06T06:00:33;101433.66;;;4.70;100.00
32320;BME280;19080;51.750;5.888;2023-04-06T06:03:04;101432.59;;;4.84;100.00
32320;BME280;19080;51.750;5.888;2023-04-06T06:05:34;101357.81;;;4.60;100.00
32320;BME280;19080;51.750;5.888;2023-04-06T06:08:09;101416.03;;;5.04;100.00
32320;BME280;19080;51.750;5.888;2023-04-06T06:10:38;101350.03;;;4.80;100.00
32320;BME280;19080;51.750;5.888;2023-04-06T06:13:06;101428.06;;;5.38;100.00
32320;BME280;19080;51.750;5.888;2023-04-06T06:15:34;101418.50;;;5.59;100.00
32320;BME280;19080;51.750;5.888;2023-04-06T06:18:01;101441.91;;;5.92;100.00
32320;BME280;19080;51.750;5.888;2023-04-06T06:20:29;101358.50;;;5.52;100.00
32320;BME280;19080;51.750;5.888;2023-04-06T06:23:00;101434.16;;;6.15;100.00
32320;BME280;19080;51.750;5.888;2023-04-06T06:25:27;101407.53;;;6.09;100.00
32320;BME280;19080;51.750;5.888;2023-04-06T06:27:54;101412.16;;;6.36;100.00
32320;BME280;19080;51.750;5.888;2023-04-06T06:30:20;101391.13;;;6.37;99.99
32320;BME280;19080;51.750;5.888;2023-04-06T06:32:50;101418.69;;;6.66;98.12
32320;BME280;19080;51.750;5.888;2023-04-06T06:35:18;101432.78;;;6.89;94.50
32320;BME280;19080;51.750;5.888;2023-04-06T06:37:46;101303.00;;;6.31;95.69
32320;BME280;19080;51.750;5.888;2023-04-06T06:40:17;101442.22;;;7.29;91.52
32320;BME280;19080;51.750;5.888;2023-04-06T06:42:46;101430.81;;;7.30;91.27
32320;BME280;19080;51.750;5.888;2023-04-06T06:45:33;101418.97;;;7.42;88.83
32320;BME280;19080;51.750;5.888;2023-04-06T06:48:00;101345.09;;;7.20;88.63
32320;BME280;19080;51.750;5.888;2023-04-06T06:50:27;101342.84;;;7.31;86.13
32320;BME280;19080;51.750;5.888;2023-04-06T06:52:53;101424.06;;;7.86;83.22
32320;BME280;19080;51.750;5.888;2023-04-06T06:55:21;101426.75;;;7.87;85.57
32320;BME280;19080;51.750;5.888;2023-04-06T06:57:48;101348.66;;;7.46;86.22
32320;BME280;19080;51.750;5.888;2023-04-06T07:00:15;101357.44;;;7.45;87.31
32320;BME280;19080;51.750;5.888;2023-04-06T07:02:44;101400.97;;;7.80;86.98
32320;BME280;19080;51.750;5.888;2023-04-06T07:05:11;101413.34;;;7.81;88.55
32320;BME280;19080;51.750;5.888;2023-04-06T07:07:54;101421.69;;;7.93;89.54
32320;BME280;19080;51.750;5.888;2023-04-06T07:10:21;101413.72;;;7.92;89.69
32320;BME280;19080;51.750;5.888;2023-04-06T07:12:48;101422.97;;;8.04;89.43
32320;BME280;19080;51.750;5.888;2023-04-06T07:15:16;101342.66;;;7.75;87.85
32320;BME280;19080;51.750;5.888;2023-04-06T07:17:44;101414.97;;;8.28;87.67
32320;BME280;19080;51.750;5.888;2023-04-06T07:20:14;101413.66;;;8.41;86.26
32320;BME280;19080;51.750;5.888;2023-04-06T07:22:42;101399.84;;;8.50;83.93
32320;BME280;19080;51.750;5.888;2023-04-06T07:25:10;101333.22;;;8.34;86.22
32320;BME280;19080;51.750;5.888;2023-04-06T07:27:36;101338.69;;;8.69;81.83
32320;BME280;19080;51.750;5.888;2023-04-06T07:30:04;101423.44;;;9.29;81.43
32320;BME280;19080;51.750;5.888;2023-04-06T07:32:30;101357.63;;;9.12;82.90
32320;BME280;19080;51.750;5.888;2023-04-06T07:34:58;101403.56;;;9.74;78.22
32320;BME280;19080;51.750;5.888;2023-04-06T07:37:24;101423.72;;;10.01;75.16
32320;BME280;19080;51.750;5.888;2023-04-06T07:39:52;101412.34;;;10.05;75.10
32320;BME280;19080;51.750;5.888;2023-04-06T07:42:18;101334.63;;;9.74;71.52
32320;BME280;19080;51.750;5.888;2023-04-06T07:44:45;101418.44;;;10.34;72.77
32320;BME280;19080;51.750;5.888;2023-04-06T07:47:12;101394.59;;;10.35;70.23
32320;BME280;19080;51.750;5.888;2023-04-06T07:49:39;101333.94;;;10.16;67.30
32320;BME280;19080;51.750;5.888;2023-04-06T07:52:05;101384.25;;;10.48;64.79
32320;BME280;19080;51.750;5.888;2023-04-06T07:54:32;101403.16;;;10.61;64.41
32320;BME280;19080;51.750;5.888;2023-04-06T07:56:59;101365.16;;;10.25;65.78
32320;BME280;19080;51.750;5.888;2023-04-06T07:59:26;101405.41;;;10.44;66.33
32320;BME280;19080;51.750;5.888;2023-04-06T08:01:53;101365.69;;;10.13;66.52
32320;BME280;19080;51.750;5.888;2023-04-06T08:04:20;101406.94;;;10.33;67.47
32320;BME280;19080;51.750;5.888;2023-04-06T08:06:46;101309.94;;;9.75;67.89
32320;BME280;19080;51.750;5.888;2023-04-06T08:09:13;101309.78;;;9.69;68.81
32320;BME280;19080;51.750;5.888;2023-04-06T08:14:43;101394.28;;;10.23;70.67
32320;BME280;19080;51.750;5.888;2023-04-06T08:17:09;101401.75;;;10.38;68.81
32320;BME280;19080;51.750;5.888;2023-04-06T08:19:36;101401.03;;;10.47;66.80
32320;BME280;19080;51.750;5.888;2023-04-06T08:22:05;101389.44;;;10.43;67.14
32320;BME280;19080;51.750;5.888;2023-04-06T08:24:32;101395.09;;;10.57;66.85
32320;BME280;19080;51.750;5.888;2023-04-06T08:26:59;101345.16;;;10.40;65.10
32320;BME280;19080;51.750;5.888;2023-04-06T08:29:25;101416.97;;;10.84;65.12
32320;BME280;19080;51.750;5.888;2023-04-06T08:31:52;101371.66;;;10.76;65.53
32320;BME280;19080;51.750;5.888;2023-04-06T08:34:18;101380.22;;;11.02;63.29
32320;BME280;19080;51.750;5.888;2023-04-06T08:36:45;101313.28;;;10.78;61.92
32320;BME280;19080;51.750;5.888;2023-04-06T08:39:13;101402.78;;;11.23;62.32
32320;BME280;19080;51.750;5.888;2023-04-06T08:41:43;101389.63;;;11.29;61.48
32320;BME280;19080;51.750;5.888;2023-04-06T08:44:10;101402.50;;;11.51;61.19
32320;BME280;19080;51.750;5.888;2023-04-06T08:46:37;101341.59;;;11.18;60.02
32320;BME280;19080;51.750;5.888;2023-04-06T08:49:04;101394.53;;;11.51;59.19
32320;BME280;19080;51.750;5.888;2023-04-06T08:51:36;101314.56;;;10.97;60.55
32320;BME280;19080;51.750;5.888;2023-04-06T08:54:04;101389.06;;;11.44;60.88
32320;BME280;19080;51.750;5.888;2023-04-06T08:56:31;101369.50;;;11.40;60.94
32320;BME280;19080;51.750;5.888;2023-04-06T08:58:58;101391.25;;;11.64;59.73
32320;BME280;19080;51.750;5.888;2023-04-06T09:01:26;101386.78;;;11.63;59.95
32320;BME280;19080;51.750;5.888;2023-04-06T09:03:58;101322.69;;;11.48;60.01
32320;BME280;19080;51.750;5.888;2023-04-06T09:06:26;101334.25;;;11.97;58.46
32320;BME280;19080;51.750;5.888;2023-04-06T09:08:57;101380.16;;;12.95;55.93
32320;BME280;19080;51.750;5.888;2023-04-06T09:11:24;101338.25;;;13.53;51.74
32320;BME280;19080;51.750;5.888;2023-04-06T09:13:53;101354.75;;;14.02;50.40
32320;BME280;19080;51.750;5.888;2023-04-06T09:16:21;101321.72;;;13.92;48.21
32320;BME280;19080;51.750;5.888;2023-04-06T09:18:48;101330.72;;;14.02;48.88
32320;BME280;19080;51.750;5.888;2023-04-06T09:21:17;101384.66;;;14.64;49.34
32320;BME280;19080;51.750;5.888;2023-04-06T09:23:44;101364.28;;;14.77;49.19
32320;BME280;19080;51.750;5.888;2023-04-06T09:26:16;101398.47;;;15.36;46.91
32320;BME280;19080;51.750;5.888;2023-04-06T09:28:47;101390.50;;;15.53;47.09
32320;BME280;19080;51.750;5.888;2023-04-06T09:31:15;101394.06;;;15.49;45.75
32320;BME280;19080;51.750;5.888;2023-04-06T09:33:44;101402.97;;;15.48;46.00
32320;BME280;19080;51.750;5.888;2023-04-06T09:36:11;101383.16;;;15.05;46.59
32320;BME280;19080;51.750;5.888;2023-04-06T09:38:50;101373.22;;;14.85;46.74
32320;BME280;19080;51.750;5.888;2023-04-06T09:41:27;101323.09;;;14.48;47.13
32320;BME280;19080;51.750;5.888;2023-04-06T09:44:04;101391.03;;;14.83;48.35
32320;BME280;19080;51.750;5.888;2023-04-06T09:46:41;101401.81;;;14.95;48.32
32320;BME280;19080;51.750;5.888;2023-04-06T09:49:30;101379.53;;;14.95;48.02
32320;BME280;19080;51.750;5.888;2023-04-06T09:51:59;101389.34;;;15.01;47.49
32320;BME280;19080;51.750;5.888;2023-04-06T09:54:28;101397.38;;;14.97;47.15
32320;BME280;19080;51.750;5.888;2023-04-06T09:57:01;101361.53;;;14.67;46.11
32320;BME280;19080;51.750;5.888;2023-04-06T09:59:36;101396.22;;;14.62;46.87
32320;BME280;19080;51.750;5.888;2023-04-06T10:02:05;101389.84;;;14.43;47.53
32320;BME280;19080;51.750;5.888;2023-04-06T10:04:55;101383.69;;;14.55;48.30
32320;BME280;19080;51.750;5.888;2023-04-06T10:07:23;101320.19;;;14.20;48.15
32320;BME280;19080;51.750;5.888;2023-04-06T10:09:50;101394.50;;;14.70;48.16
32320;BME280;19080;51.750;5.888;2023-04-06T10:12:19;101387.38;;;14.69;48.83
32320;BME280;19080;51.750;5.888;2023-04-06T10:14:45;101366.00;;;14.69;47.90
32320;BME280;19080;51.750;5.888;2023-04-06T10:17:13;101367.78;;;14.70;48.24
32320;BME280;19080;51.750;5.888;2023-04-06T10:20:02;101398.16;;;14.81;47.91
32320;BME280;19080;51.750;5.888;2023-04-06T10:22:43;101370.50;;;14.76;48.81
32320;BME280;19080;51.750;5.888;2023-04-06T10:25:12;101363.34;;;14.74;48.29
32320;BME280;19080;51.750;5.888;2023-04-06T10:27:39;101382.25;;;15.04;47.66
32320;BME280;19080;51.750;5.888;2023-04-06T10:30:06;101390.34;;;15.21;48.45
32320;BME280;19080;51.750;5.888;2023-04-06T10:32:34;101404.75;;;15.50;48.56
32320;BME280;19080;51.750;5.888;2023-04-06T10:35:09;101384.25;;;15.49;47.38
32320;BME280;19080;51.750;5.888;2023-04-06T10:38:00;101406.56;;;15.54;48.19
32320;BME280;19080;51.750;5.888;2023-04-06T10:40:30;101384.25;;;15.55;46.95
32320;BME280;19080;51.750;5.888;2023-04-06T10:43:09;101404.91;;;15.93;47.16
32320;BME280;19080;51.750;5.888;2023-04-06T10:45:37;101374.56;;;16.09;45.93
32320;BME280;19080;51.750;5.888;2023-04-06T10:48:13;101322.75;;;15.69;45.78
32320;BME280;19080;51.750;5.888;2023-04-06T10:50:48;101389.69;;;15.83;47.19
32320;BME280;19080;51.750;5.888;2023-04-06T10:53:25;101322.69;;;15.46;48.12
32320;BME280;19080;51.750;5.888;2023-04-06T10:55:56;101381.69;;;15.98;47.09
32320;BME280;19080;51.750;5.888;2023-04-06T10:58:27;101360.28;;;15.90;47.45
32320;BME280;19080;51.750;5.888;2023-04-06T11:00:54;101343.31;;;15.85;47.28
32320;BME280;19080;51.750;5.888;2023-04-06T11:03:22;101349.56;;;15.90;47.96
32320;BME280;19080;51.750;5.888;2023-04-06T11:05:50;101391.53;;;15.99;48.13
32320;BME280;19080;51.750;5.888;2023-04-06T11:08:30;101386.13;;;15.84;49.42
32320;BME280;19080;51.750;5.888;2023-04-06T11:11:25;101394.16;;;15.81;49.03
32320;BME280;19080;51.750;5.888;2023-04-06T11:13:54;101393.19;;;15.54;50.41
32320;BME280;19080;51.750;5.888;2023-04-06T11:16:30;101370.88;;;15.51;51.55
32320;BME280;19080;51.750;5.888;2023-04-06T11:19:04;101201.97;;;14.43;52.82
32320;BME280;19080;51.750;5.888;2023-04-06T11:24:10;101377.81;;;15.09;56.38
32320;BME280;19080;51.750;5.888;2023-04-06T11:26:41;101393.00;;;15.15;58.23
32320;BME280;19080;51.750;5.888;2023-04-06T11:29:08;101357.00;;;14.55;63.06
32320;BME280;19080;51.750;5.888;2023-04-06T11:31:42;101350.47;;;14.22;65.62
32320;BME280;19080;51.750;5.888;2023-04-06T11:34:23;101374.50;;;14.22;68.53
32320;BME280;19080;51.750;5.888;2023-04-06T11:37:16;101395.59;;;13.95;69.96
32320;BME280;19080;51.750;5.888;2023-04-06T11:39:51;101397.28;;;13.84;74.31
32320;BME280;19080;51.750;5.888;2023-04-06T11:42:26;101305.91;;;13.23;76.99
32320;BME280;19080;51.750;5.888;2023-04-06T11:44:58;101348.66;;;13.29;80.52
32320;BME280;19080;51.750;5.888;2023-04-06T11:47:36;101382.19;;;13.15;86.75
32320;BME280;19080;51.750;5.888;2023-04-06T11:50:08;101393.47;;;12.94;93.71
32320;BME280;19080;51.750;5.888;2023-04-06T11:52:36;101370.69;;;12.57;96.49
32320;BME280;19080;51.750;5.888;2023-04-06T11:55:36;101394.59;;;11.99;100.00
32320;BME280;19080;51.750;5.888;2023-04-06T11:58:03;101358.16;;;11.49;100.00
32320;BME280;19080;51.750;5.888;2023-04-06T12:00:30;101371.13;;;11.33;100.00
32320;BME280;19080;51.750;5.888;2023-04-06T12:03:02;101350.25;;;11.09;100.00
32320;BME280;19080;51.750;5.888;2023-04-06T12:05:29;101306.00;;;10.69;100.00
32320;BME280;19080;51.750;5.888;2023-04-06T12:08:01;101288.84;;;10.54;100.00
32320;BME280;19080;51.750;5.888;2023-04-06T12:10:29;101369.50;;;10.99;100.00
32320;BME280;19080;51.750;5.888;2023-04-06T12:12:56;101368.72;;;11.03;100.00
32320;BME280;19080;51.750;5.888;2023-04-06T12:15:23;101374.91;;;11.02;100.00
32320;BME280;19080;51.750;5.888;2023-04-06T12:17:50;101360.31;;;10.84;100.00
32320;BME280;19080;51.750;5.888;2023-04-06T12:20:17;101374.69;;;10.93;100.00
32320;BME280;19080;51.750;5.888;2023-04-06T12:22:52;101381.78;;;10.94;100.00
32320;BME280;19080;51.750;5.888;2023-04-06T12:25:19;101385.31;;;10.93;100.00
32320;BME280;19080;51.750;5.888;2023-04-06T12:27:47;101361.13;;;10.81;100.00
32320;BME280;19080;51.750;5.888;2023-04-06T12:30:14;101389.28;;;10.73;100.00
32320;BME280;19080;51.750;5.888;2023-04-06T12:32:41;101373.84;;;10.57;100.00
32320;BME280;19080;51.750;5.888;2023-04-06T12:35:08;101368.88;;;10.33;100.00
32320;BME280;19080;51.750;5.888;2023-04-06T12:37:36;101350.97;;;10.24;100.00
32320;BME280;19080;51.750;5.888;2023-04-06T12:40:03;101357.78;;;10.15;100.00
32320;BME280;19080;51.750;5.888;2023-04-06T12:42:30;101369.47;;;10.21;100.00
32320;BME280;19080;51.750;5.888;2023-04-06T12:44:57;101348.69;;;10.05;100.00
32320;BME280;19080;51.750;5.888;2023-04-06T12:47:25;101276.16;;;9.68;100.00
32320;BME280;19080;51.750;5.888;2023-04-06T12:49:53;101354.63;;;9.95;100.00
32320;BME280;19080;51.750;5.888;2023-04-06T12:52:21;101343.69;;;9.83;100.00
32320;BME280;19080;51.750;5.888;2023-04-06T12:54:48;101343.13;;;9.94;100.00
32320;BME280;19080;51.750;5.888;2023-04-06T12:57:17;101326.06;;;9.85;100.00
32320;BME280;19080;51.750;5.888;2023-04-06T12:59:44;101366.34;;;10.04;100.00
32320;BME280;19080;51.750;5.888;2023-04-06T13:02:11;101324.97;;;9.76;100.00
32320;BME280;19080;51.750;5.888;2023-04-06T13:04:38;101312.47;;;9.71;100.00
32320;BME280;19080;51.750;5.888;2023-04-06T13:07:05;101350.22;;;9.62;100.00
32320;BME280;19080;51.750;5.888;2023-04-06T13:09:32;101323.22;;;9.44;100.00
32320;BME280;19080;51.750;5.888;2023-04-06T13:11:59;101346.50;;;9.56;100.00
32320;BME280;19080;51.750;5.888;2023-04-06T13:14:26;101312.25;;;9.30;100.00